< < Back
Terminal Aerodrome Forecast


Current Version              Previous Versions:   1  2  3  4  5  6  7  8  9  

Terminal Aerodrome Forecast

772
FTUS42 KCHS 081737
TAFCHS
TAF
KCHS 081737Z 0818/0918 23014G21KT P6SM SCT100
     FM082200 23017G25KT P6SM SCT050 BKN080
     FM090000 24012G18KT P6SM VCSH SCT035 OVC050
      TEMPO 0900/0904 6SM -SHRA BKN035
     FM090600 27014G21KT P6SM SCT050
     FM091500 27017G27KT P6SM SCT035 BKN050=

Latest METAR

217
SAUS80 KWBC 090100 CCA
MTRCHS
METAR KCHS 090056Z 23008KT 10SM -RA OVC040 08/06 A2974 RMK AO2 SLP071
P0001 T00830056


USA.gov is the U.S. government's official web portal to all federal, state and local government web resources and services.